PWSweather.com
Personal Weather Stations
Station Observations
UISISLE1
Newport, Isle ofWight, ISLE OF WIGHT PO30 2JX

NewportIsle ofWight, ISLE OF WIGHT PO30 2JX

Lat: 50.72, Lon: -1.27

Elevation: 45

Station Type: Davis Vantage Pro Plus

http://www.isleofwightweather.co.uk

Latest ConditionsUpdated 10:45:03 PM GMT Friday, Nov 17, 2017
Currently Today's Max Today's Min Today's Average
Temperature 32.6°F0.3°C 48.4°F9.1°C 32.6°F0.3°C 40.7°F4.8°C
Dew Point 29.7°F-1.3°C 41.7°F5.4°C 29.7°F-1.3°C 35.8°F2.1°C
Winds Calm Calm 5.6 mph ENE9.0 kmh ENE - 1.0 mph 1.6 kmh
Wind Gusts -- 8.2 mph13.2 kmh - -
Humidity 89% 95% 67% 83%
Pressure 30.39 in1029.1 mb 30.44 in1030.8 mb 30.37 in1028.4 mb -
Hour Temp Dew Point Humidity Winds Wind Gusts Pressure Precip Precip Rate Daily Precip Total
10:45 PM 32.6°F0.3°C 29.7°F-1.3°C 89% Calm Calm -- 30.39 in1029.1 mb - 0.00 in0.0 mm 0.00 in0.0 mm
10:30 PM 32.9°F0.5°C 30.0°F-1.1°C 89% Calm Calm -- 30.39 in1029.1 mb - 0.00 in0.0 mm 0.00 in0.0 mm
10:15 PM 33.1°F0.6°C 30.2°F-1.0°C 89% Calm Calm -- 30.39 in1029.1 mb - 0.00 in0.0 mm 0.00 in0.0 mm
10:00 PM 33.5°F0.8°C 30.6°F-0.8°C 89% Calm Calm -- 30.39 in1029.1 mb - 0.00 in0.0 mm 0.00 in0.0 mm
09:45 PM 33.8°F1.0°C 30.9°F-0.6°C 89% Calm Calm -- 30.38 in1028.8 mb - 0.00 in0.0 mm 0.00 in0.0 mm
09:30 PM 34.1°F1.2°C 30.9°F-0.6°C 88% Calm Calm -- 30.39 in1029.1 mb - 0.00 in0.0 mm 0.00 in0.0 mm
09:15 PM 34.5°F1.4°C 31.6°F-0.2°C 89% Calm Calm -- 30.38 in1028.8 mb - 0.00 in0.0 mm 0.00 in0.0 mm
09:00 PM 34.7°F1.5°C 31.5°F-0.3°C 88% Calm Calm -- 30.39 in1029.1 mb - 0.00 in0.0 mm 0.00 in0.0 mm
08:45 PM 34.8°F1.6°C 31.6°F-0.2°C 88% Calm Calm -- 30.38 in1028.8 mb - 0.00 in0.0 mm 0.00 in0.0 mm
08:30 PM 34.8°F1.6°C 31.3°F-0.4°C 87% Calm Calm -- 30.38 in1028.8 mb - 0.00 in0.0 mm 0.00 in0.0 mm
08:15 PM 34.8°F1.6°C 31.3°F-0.4°C 87% Calm Calm -- 30.38 in1028.8 mb - 0.00 in0.0 mm 0.00 in0.0 mm
08:00 PM 36.6°F2.6°C 32.2°F0.1°C 84% Calm Calm -- 30.38 in1028.8 mb - 0.00 in0.0 mm 0.00 in0.0 mm
07:45 PM 36.6°F2.6°C 32.2°F0.1°C 84% Calm Calm -- 30.39 in1029.1 mb - 0.00 in0.0 mm 0.00 in0.0 mm
07:30 PM 36.6°F2.6°C 32.2°F0.1°C 84% Calm Calm -- 30.39 in1029.1 mb - 0.00 in0.0 mm 0.00 in0.0 mm
07:15 PM 36.6°F2.6°C 32.2°F0.1°C 84% Calm Calm -- 30.39 in1029.1 mb - 0.00 in0.0 mm 0.00 in0.0 mm
07:00 PM 36.7°F2.6°C 32.3°F0.2°C 84% Calm Calm -- 30.39 in1029.1 mb - 0.00 in0.0 mm 0.00 in0.0 mm
06:45 PM 37.1°F2.8°C 32.5°F0.3°C 83% Calm Calm -- 30.39 in1029.1 mb - 0.00 in0.0 mm 0.00 in0.0 mm
06:30 PM 37.7°F3.2°C 32.7°F0.4°C 82% Calm Calm -- 30.39 in1029.1 mb - 0.00 in0.0 mm 0.00 in0.0 mm
06:15 PM 38.4°F3.6°C 33.1°F0.6°C 81% Calm Calm -- 30.39 in1029.1 mb - 0.00 in0.0 mm 0.00 in0.0 mm
06:00 PM 39.1°F3.9°C 33.5°F0.8°C 80% 0.4 mph W0.6 kmh W 1.0 mph1.6 kmh 30.39 in1029.1 mb - 0.00 in0.0 mm 0.00 in0.0 mm
05:45 PM 39.8°F4.3°C 33.8°F1.0°C 79% Calm Calm -- 30.39 in1029.1 mb - 0.00 in0.0 mm 0.00 in0.0 mm
05:30 PM 40.6°F4.8°C 34.3°F1.3°C 78% Calm Calm -- 30.40 in1029.5 mb - 0.00 in0.0 mm 0.00 in0.0 mm
05:15 PM 41.4°F5.2°C 34.7°F1.5°C 77% Calm Calm -- 30.40 in1029.5 mb - 0.00 in0.0 mm 0.00 in0.0 mm
05:00 PM 42.4°F5.8°C 35.3°F1.8°C 76% Calm Calm -- 30.40 in1029.5 mb - 0.00 in0.0 mm 0.00 in0.0 mm
04:45 PM 43.5°F6.4°C 35.7°F2.1°C 74% Calm Calm -- 30.39 in1029.1 mb - 0.00 in0.0 mm 0.00 in0.0 mm
04:30 PM 44.7°F7.1°C 36.2°F2.3°C 72% Calm Calm -- 30.39 in1029.1 mb - 0.00 in0.0 mm 0.00 in0.0 mm
04:15 PM 45.9°F7.7°C 36.6°F2.6°C 70% Calm Calm -- 30.39 in1029.1 mb - 0.00 in0.0 mm 0.00 in0.0 mm
04:00 PM 46.9°F8.3°C 37.6°F3.1°C 70% Calm Calm -- 30.39 in1029.1 mb - 0.00 in0.0 mm 0.00 in0.0 mm
03:45 PM 47.6°F8.7°C 38.3°F3.5°C 70% Calm Calm -- 30.38 in1028.8 mb - 0.00 in0.0 mm 0.00 in0.0 mm
03:30 PM 47.9°F8.8°C 37.8°F3.2°C 68% 2.4 mph N3.9 kmh N 3.1 mph5.0 kmh 30.39 in1029.1 mb - 0.00 in0.0 mm 0.00 in0.0 mm
03:15 PM 48.1°F8.9°C 38.0°F3.3°C 68% Calm Calm -- 30.38 in1028.8 mb - 0.00 in0.0 mm 0.00 in0.0 mm
03:00 PM 48.4°F9.1°C 37.9°F3.3°C 67% 3.1 mph N5.0 kmh N 4.1 mph6.6 kmh 30.39 in1029.1 mb - 0.00 in0.0 mm 0.00 in0.0 mm
02:45 PM 48.4°F9.1°C 37.9°F3.3°C 67% 1.2 mph N1.9 kmh N 3.1 mph5.0 kmh 30.39 in1029.1 mb - 0.00 in0.0 mm 0.00 in0.0 mm
02:30 PM 48.2°F9.0°C 37.8°F3.2°C 67% 3.2 mph NNW5.1 kmh NNW 5.1 mph8.2 kmh 30.39 in1029.1 mb - 0.00 in0.0 mm 0.00 in0.0 mm
02:15 PM 48.1°F8.9°C 38.0°F3.3°C 68% 3.0 mph NE4.8 kmh NE 4.1 mph6.6 kmh 30.39 in1029.1 mb - 0.00 in0.0 mm 0.00 in0.0 mm
02:00 PM 48.1°F8.9°C 38.4°F3.6°C 69% 2.3 mph NNE3.7 kmh NNE 3.1 mph5.0 kmh 30.40 in1029.5 mb - 0.00 in0.0 mm 0.00 in0.0 mm
01:45 PM 48.0°F8.9°C 38.3°F3.5°C 69% 1.0 mph N1.6 kmh N 3.1 mph5.0 kmh 30.40 in1029.5 mb - 0.00 in0.0 mm 0.00 in0.0 mm
01:30 PM 48.0°F8.9°C 37.9°F3.3°C 68% 3.4 mph NNE5.5 kmh NNE 5.1 mph8.2 kmh 30.41 in1029.8 mb - 0.00 in0.0 mm 0.00 in0.0 mm
01:15 PM 47.8°F8.8°C 37.7°F3.2°C 68% 3.1 mph N5.0 kmh N 5.1 mph8.2 kmh 30.41 in1029.8 mb - 0.00 in0.0 mm 0.00 in0.0 mm
01:00 PM 47.7°F8.7°C 38.4°F3.6°C 70% 2.7 mph NE4.3 kmh NE 5.0 mph8.0 kmh 30.42 in1030.1 mb - 0.00 in0.0 mm 0.00 in0.0 mm
12:45 PM 47.5°F8.6°C 38.6°F3.7°C 71% 4.9 mph NE7.9 kmh NE 6.2 mph10.0 kmh 30.43 in1030.5 mb - 0.00 in0.0 mm 0.00 in0.0 mm
12:30 PM 47.3°F8.5°C 38.0°F3.3°C 70% 4.5 mph N7.2 kmh N 5.1 mph8.2 kmh 30.43 in1030.5 mb - 0.00 in0.0 mm 0.00 in0.0 mm
12:15 PM 47.0°F8.3°C 38.4°F3.6°C 72% 1.8 mph NNE2.9 kmh NNE 3.1 mph5.0 kmh 30.43 in1030.5 mb - 0.00 in0.0 mm 0.00 in0.0 mm
12:00 PM 46.5°F8.1°C 39.3°F4.1°C 76% 3.9 mph NE6.3 kmh NE 5.1 mph8.2 kmh 30.43 in1030.5 mb - 0.00 in0.0 mm 0.00 in0.0 mm
11:45 AM 45.5°F7.5°C 40.6°F4.8°C 83% 4.8 mph N7.7 kmh N 7.2 mph11.6 kmh 30.43 in1030.5 mb - 0.00 in0.0 mm 0.00 in0.0 mm
11:30 AM 45.0°F7.2°C 41.3°F5.2°C 87% 3.1 mph NE5.0 kmh NE 8.0 mph12.9 kmh 30.43 in1030.5 mb - 0.00 in0.0 mm 0.00 in0.0 mm
11:15 AM 44.4°F6.9°C 41.6°F5.3°C 90% 3.8 mph N6.1 kmh N 5.1 mph8.2 kmh 30.43 in1030.5 mb - 0.00 in0.0 mm 0.00 in0.0 mm
11:00 AM 43.4°F6.3°C 41.2°F5.1°C 92% 3.7 mph NNE6.0 kmh NNE 4.1 mph6.6 kmh 30.43 in1030.5 mb - 0.00 in0.0 mm 0.00 in0.0 mm
10:45 AM 42.3°F5.7°C 40.7°F4.8°C 94% 2.8 mph N4.5 kmh N 5.1 mph8.2 kmh 30.44 in1030.8 mb - 0.00 in0.0 mm 0.00 in0.0 mm
10:30 AM 41.0°F5.0°C 39.7°F4.3°C 95% 1.7 mph NE2.7 kmh NE 6.2 mph10.0 kmh 30.44 in1030.8 mb - 0.00 in0.0 mm 0.00 in0.0 mm
10:15 AM 39.1°F3.9°C 37.8°F3.2°C 95% 3.4 mph NE5.5 kmh NE 5.1 mph8.2 kmh 30.43 in1030.5 mb - 0.00 in0.0 mm 0.00 in0.0 mm
10:00 AM 37.9°F3.3°C 36.3°F2.4°C 94% 1.5 mph E2.4 kmh E 3.0 mph4.8 kmh 30.43 in1030.5 mb - 0.00 in0.0 mm 0.00 in0.0 mm
09:45 AM 36.8°F2.7°C 35.3°F1.8°C 94% 0.3 mph NE0.5 kmh NE 2.1 mph3.4 kmh 30.43 in1030.5 mb - 0.00 in0.0 mm 0.00 in0.0 mm
09:30 AM 35.8°F2.1°C 34.0°F1.1°C 93% Calm Calm -- 30.43 in1030.5 mb - 0.00 in0.0 mm 0.00 in0.0 mm
09:15 AM 35.2°F1.8°C 33.1°F0.6°C 92% Calm Calm -- 30.43 in1030.5 mb - 0.00 in0.0 mm 0.00 in0.0 mm
09:00 AM 34.8°F1.6°C 32.7°F0.4°C 92% Calm Calm -- 30.43 in1030.5 mb - 0.00 in0.0 mm 0.00 in0.0 mm
08:45 AM 34.6°F1.4°C 32.2°F0.1°C 91% Calm Calm -- 30.43 in1030.5 mb - 0.00 in0.0 mm 0.00 in0.0 mm
08:30 AM 34.7°F1.5°C 32.1°F0.1°C 90% Calm Calm -- 30.43 in1030.5 mb - 0.00 in0.0 mm 0.00 in0.0 mm
08:15 AM 35.0°F1.7°C 32.4°F0.2°C 90% Calm Calm -- 30.44 in1030.8 mb - 0.00 in0.0 mm 0.00 in0.0 mm
08:00 AM 35.4°F1.9°C 32.8°F0.4°C 90% Calm Calm -- 30.43 in1030.5 mb - 0.00 in0.0 mm 0.00 in0.0 mm
07:45 AM 35.8°F2.1°C 33.2°F0.7°C 90% Calm Calm -- 30.42 in1030.1 mb - 0.00 in0.0 mm 0.00 in0.0 mm
07:30 AM 36.2°F2.3°C 33.6°F0.9°C 90% Calm Calm -- 30.43 in1030.5 mb - 0.00 in0.0 mm 0.00 in0.0 mm
07:15 AM 36.7°F2.6°C 34.0°F1.1°C 90% Calm Calm -- 30.42 in1030.1 mb - 0.00 in0.0 mm 0.00 in0.0 mm
07:00 AM 37.0°F2.8°C 34.3°F1.3°C 90% Calm Calm -- 30.42 in1030.1 mb - 0.00 in0.0 mm 0.00 in0.0 mm
06:45 AM 37.2°F2.9°C 34.5°F1.4°C 90% Calm Calm -- 30.41 in1029.8 mb - 0.00 in0.0 mm 0.00 in0.0 mm
06:30 AM 37.5°F3.1°C 34.8°F1.6°C 90% Calm Calm -- 30.41 in1029.8 mb - 0.00 in0.0 mm 0.00 in0.0 mm
06:15 AM 37.7°F3.2°C 35.0°F1.7°C 90% Calm Calm -- 30.41 in1029.8 mb - 0.00 in0.0 mm 0.00 in0.0 mm
06:00 AM 37.8°F3.2°C 35.1°F1.7°C 90% Calm Calm -- 30.41 in1029.8 mb - 0.00 in0.0 mm 0.00 in0.0 mm
05:45 AM 38.0°F3.3°C 35.3°F1.8°C 90% Calm Calm -- 30.41 in1029.8 mb - 0.00 in0.0 mm 0.00 in0.0 mm
05:30 AM 38.1°F3.4°C 35.4°F1.9°C 90% Calm Calm -- 30.41 in1029.8 mb - 0.00 in0.0 mm 0.00 in0.0 mm
05:15 AM 38.3°F3.5°C 35.3°F1.8°C 89% Calm Calm -- 30.40 in1029.5 mb - 0.00 in0.0 mm 0.00 in0.0 mm
05:00 AM 38.5°F3.6°C 35.3°F1.8°C 88% 0.3 mph NNE0.5 kmh NNE 2.1 mph3.4 kmh 30.41 in1029.8 mb - 0.00 in0.0 mm 0.00 in0.0 mm
04:45 AM 38.8°F3.8°C 35.3°F1.8°C 87% Calm Calm -- 30.41 in1029.8 mb - 0.00 in0.0 mm 0.00 in0.0 mm
04:30 AM 39.2°F4.0°C 35.4°F1.9°C 86% Calm Calm -- 30.40 in1029.5 mb - 0.00 in0.0 mm 0.00 in0.0 mm
04:15 AM 39.7°F4.3°C 35.9°F2.2°C 86% Calm Calm -- 30.40 in1029.5 mb - 0.00 in0.0 mm 0.00 in0.0 mm
04:00 AM 40.1°F4.5°C 36.3°F2.4°C 86% Calm Calm -- 30.40 in1029.5 mb - 0.00 in0.0 mm 0.00 in0.0 mm
03:45 AM 40.6°F4.8°C 36.4°F2.4°C 85% Calm Calm 1.0 mph1.6 kmh 30.40 in1029.5 mb - 0.00 in0.0 mm 0.00 in0.0 mm
03:30 AM 41.0°F5.0°C 36.8°F2.7°C 85% 1.0 mph NNE1.6 kmh NNE 2.1 mph3.4 kmh 30.40 in1029.5 mb - 0.00 in0.0 mm 0.00 in0.0 mm
03:15 AM 41.4°F5.2°C 36.9°F2.7°C 84% 1.5 mph NE2.4 kmh NE 3.1 mph5.0 kmh 30.40 in1029.5 mb - 0.00 in0.0 mm 0.00 in0.0 mm
03:00 AM 42.0°F5.6°C 36.9°F2.7°C 82% 2.0 mph N3.2 kmh N 3.1 mph5.0 kmh 30.39 in1029.1 mb - 0.00 in0.0 mm 0.00 in0.0 mm
02:45 AM 42.7°F5.9°C 37.6°F3.1°C 82% Calm Calm -- 30.39 in1029.1 mb - 0.00 in0.0 mm 0.00 in0.0 mm
02:30 AM 43.4°F6.3°C 38.3°F3.5°C 82% Calm Calm -- 30.39 in1029.1 mb - 0.00 in0.0 mm 0.00 in0.0 mm
02:15 AM 43.8°F6.6°C 39.0°F3.9°C 83% 0.4 mph ENE0.6 kmh ENE 2.0 mph3.2 kmh 30.38 in1028.8 mb - 0.00 in0.0 mm 0.00 in0.0 mm
02:00 AM 44.1°F6.7°C 39.0°F3.9°C 82% 2.2 mph NE3.5 kmh NE 8.0 mph12.9 kmh 30.38 in1028.8 mb - 0.00 in0.0 mm 0.00 in0.0 mm
01:45 AM 44.2°F6.8°C 39.1°F3.9°C 82% 5.6 mph ENE9.0 kmh ENE 8.2 mph13.2 kmh 30.38 in1028.8 mb - 0.00 in0.0 mm 0.00 in0.0 mm
01:30 AM 44.4°F6.9°C 39.2°F4.0°C 82% 3.7 mph NNE6.0 kmh NNE 5.1 mph8.2 kmh 30.38 in1028.8 mb - 0.00 in0.0 mm 0.00 in0.0 mm
01:15 AM 44.6°F7.0°C 39.4°F4.1°C 82% 2.6 mph NNE4.2 kmh NNE 5.1 mph8.2 kmh 30.38 in1028.8 mb - 0.00 in0.0 mm 0.00 in0.0 mm
01:00 AM 45.0°F7.2°C 39.6°F4.2°C 81% 0.7 mph NNE1.1 kmh NNE -- 30.38 in1028.8 mb - 0.00 in0.0 mm 0.00 in0.0 mm
12:45 AM 45.5°F7.5°C 40.0°F4.4°C 81% Calm Calm -- 30.38 in1028.8 mb - 0.00 in0.0 mm 0.00 in0.0 mm
12:30 AM 46.2°F7.9°C 40.7°F4.8°C 81% 3.2 mph N5.1 kmh N 7.2 mph11.6 kmh 30.38 in1028.8 mb - 0.00 in0.0 mm 0.00 in0.0 mm
12:15 AM 46.6°F8.1°C 41.1°F5.1°C 81% 3.7 mph N6.0 kmh N 6.2 mph10.0 kmh 30.37 in1028.4 mb - 0.00 in0.0 mm 0.00 in0.0 mm
12:00 AM 46.9°F8.3°C 41.7°F5.4°C 82% 2.7 mph NNE4.3 kmh NNE 5.1 mph8.2 kmh 30.37 in1028.4 mb - 0.00 in0.0 mm 0.00 in0.0 mm